< < Back
Terminal Aerodrome Forecast


Current Version              Previous Versions:   1  2  3  4  5  6  7  8  9  

Terminal Aerodrome Forecast

140
FTUS44 KBMX 280500
TAFANB
TAF
KANB 280525Z 2806/2906 00000KT P6SM SKC
     FM281800 18003KT P6SM SKC=



Latest METAR

407
SAUS70 KWBC 282000 RRE
MTRANB
METAR KANB 281953Z AUTO 34003KT 10SM CLR 11/M09 A3032 RMK AO2 SLP274
T01061089


USA.gov is the U.S. government's official web portal to all federal, state and local government web resources and services.